sensor_id;sensor_type;location;lat;lon;timestamp;P1;durP1;ratioP1;P2;durP2;ratioP2
70102;SDS011;57470;50.034;15.256;2023-07-16T00:00:11;6.30;;;2.30;;
70102;SDS011;57470;50.034;15.256;2023-07-16T00:02:37;7.88;;;2.25;;
70102;SDS011;57470;50.034;15.256;2023-07-16T00:05:05;4.88;;;1.58;;
70102;SDS011;57470;50.034;15.256;2023-07-16T00:07:32;5.57;;;2.13;;
70102;SDS011;57470;50.034;15.256;2023-07-16T00:09:58;5.93;;;2.35;;
70102;SDS011;57470;50.034;15.256;2023-07-16T00:12:23;4.73;;;2.17;;
70102;SDS011;57470;50.034;15.256;2023-07-16T00:14:49;5.43;;;2.00;;
70102;SDS011;57470;50.034;15.256;2023-07-16T00:17:15;5.28;;;1.80;;
70102;SDS011;57470;50.034;15.256;2023-07-16T00:19:41;5.20;;;1.70;;
70102;SDS011;57470;50.034;15.256;2023-07-16T00:22:06;4.85;;;1.80;;
70102;SDS011;57470;50.034;15.256;2023-07-16T00:24:32;5.07;;;1.73;;
70102;SDS011;57470;50.034;15.256;2023-07-16T00:26:57;8.83;;;1.93;;
70102;SDS011;57470;50.034;15.256;2023-07-16T00:29:23;5.43;;;1.58;;
70102;SDS011;57470;50.034;15.256;2023-07-16T00:31:49;6.93;;;2.40;;
70102;SDS011;57470;50.034;15.256;2023-07-16T00:34:15;6.10;;;2.47;;
70102;SDS011;57470;50.034;15.256;2023-07-16T00:36:42;5.30;;;2.10;;
70102;SDS011;57470;50.034;15.256;2023-07-16T00:39:09;5.93;;;2.00;;
70102;SDS011;57470;50.034;15.256;2023-07-16T00:41:36;5.25;;;1.90;;
70102;SDS011;57470;50.034;15.256;2023-07-16T00:44:02;4.75;;;1.70;;
70102;SDS011;57470;50.034;15.256;2023-07-16T00:46:28;5.30;;;2.27;;
70102;SDS011;57470;50.034;15.256;2023-07-16T00:48:54;5.03;;;1.60;;
70102;SDS011;57470;50.034;15.256;2023-07-16T00:51:21;6.20;;;2.10;;
70102;SDS011;57470;50.034;15.256;2023-07-16T00:53:49;4.88;;;1.70;;
70102;SDS011;57470;50.034;15.256;2023-07-16T00:56:18;5.75;;;1.80;;
70102;SDS011;57470;50.034;15.256;2023-07-16T00:58:44;8.07;;;1.97;;
70102;SDS011;57470;50.034;15.256;2023-07-16T01:01:12;5.63;;;1.95;;
70102;SDS011;57470;50.034;15.256;2023-07-16T01:03:38;5.85;;;2.03;;
70102;SDS011;57470;50.034;15.256;2023-07-16T01:06:19;5.38;;;1.50;;
70102;SDS011;57470;50.034;15.256;2023-07-16T01:11:26;9.87;;;1.53;;
70102;SDS011;57470;50.034;15.256;2023-07-16T01:13:53;5.03;;;1.55;;
70102;SDS011;57470;50.034;15.256;2023-07-16T01:16:22;6.88;;;1.95;;
70102;SDS011;57470;50.034;15.256;2023-07-16T01:18:50;9.70;;;2.22;;
70102;SDS011;57470;50.034;15.256;2023-07-16T01:21:21;5.75;;;1.58;;
70102;SDS011;57470;50.034;15.256;2023-07-16T01:31:50;5.10;;;1.80;;
70102;SDS011;57470;50.034;15.256;2023-07-16T01:34:16;5.38;;;1.70;;
70102;SDS011;57470;50.034;15.256;2023-07-16T01:36:42;7.03;;;2.20;;
70102;SDS011;57470;50.034;15.256;2023-07-16T01:39:09;6.65;;;2.28;;
70102;SDS011;57470;50.034;15.256;2023-07-16T01:41:34;6.20;;;2.27;;
70102;SDS011;57470;50.034;15.256;2023-07-16T01:44:00;5.53;;;2.00;;
70102;SDS011;57470;50.034;15.256;2023-07-16T01:46:25;5.50;;;2.20;;
70102;SDS011;57470;50.034;15.256;2023-07-16T01:48:51;4.75;;;1.70;;
70102;SDS011;57470;50.034;15.256;2023-07-16T01:51:17;4.93;;;1.80;;
70102;SDS011;57470;50.034;15.256;2023-07-16T01:53:42;5.57;;;2.40;;
70102;SDS011;57470;50.034;15.256;2023-07-16T01:56:07;5.70;;;1.87;;
70102;SDS011;57470;50.034;15.256;2023-07-16T01:58:33;6.20;;;1.63;;
70102;SDS011;57470;50.034;15.256;2023-07-16T02:00:59;5.73;;;2.23;;
70102;SDS011;57470;50.034;15.256;2023-07-16T02:03:24;6.43;;;2.53;;
70102;SDS011;57470;50.034;15.256;2023-07-16T02:05:50;7.13;;;2.03;;
70102;SDS011;57470;50.034;15.256;2023-07-16T02:08:16;5.20;;;1.70;;
70102;SDS011;57470;50.034;15.256;2023-07-16T02:10:43;6.43;;;2.40;;
70102;SDS011;57470;50.034;15.256;2023-07-16T02:13:09;5.30;;;1.83;;
70102;SDS011;57470;50.034;15.256;2023-07-16T02:15:34;7.30;;;2.50;;
70102;SDS011;57470;50.034;15.256;2023-07-16T02:18:00;5.50;;;1.90;;
70102;SDS011;57470;50.034;15.256;2023-07-16T02:20:25;6.50;;;2.27;;
70102;SDS011;57470;50.034;15.256;2023-07-16T02:22:51;6.97;;;2.13;;
70102;SDS011;57470;50.034;15.256;2023-07-16T02:25:16;5.28;;;2.10;;
70102;SDS011;57470;50.034;15.256;2023-07-16T02:27:42;4.80;;;1.50;;
70102;SDS011;57470;50.034;15.256;2023-07-16T02:30:11;4.45;;;1.65;;
70102;SDS011;57470;50.034;15.256;2023-07-16T02:32:39;6.00;;;2.13;;
70102;SDS011;57470;50.034;15.256;2023-07-16T02:35:04;5.30;;;1.73;;
70102;SDS011;57470;50.034;15.256;2023-07-16T02:37:30;8.07;;;2.20;;
70102;SDS011;57470;50.034;15.256;2023-07-16T02:39:55;5.83;;;1.90;;
70102;SDS011;57470;50.034;15.256;2023-07-16T02:42:21;6.05;;;2.40;;
70102;SDS011;57470;50.034;15.256;2023-07-16T02:44:46;5.10;;;2.00;;
70102;SDS011;57470;50.034;15.256;2023-07-16T02:47:11;5.77;;;1.40;;
70102;SDS011;57470;50.034;15.256;2023-07-16T02:49:37;4.73;;;2.03;;
70102;SDS011;57470;50.034;15.256;2023-07-16T02:52:03;5.88;;;2.10;;
70102;SDS011;57470;50.034;15.256;2023-07-16T02:54:29;5.77;;;2.30;;
70102;SDS011;57470;50.034;15.256;2023-07-16T02:56:54;5.57;;;2.60;;
70102;SDS011;57470;50.034;15.256;2023-07-16T02:59:19;7.80;;;2.53;;
70102;SDS011;57470;50.034;15.256;2023-07-16T03:01:45;5.60;;;2.30;;
70102;SDS011;57470;50.034;15.256;2023-07-16T03:04:10;4.78;;;1.88;;
70102;SDS011;57470;50.034;15.256;2023-07-16T03:06:36;6.43;;;2.23;;
70102;SDS011;57470;50.034;15.256;2023-07-16T03:09:01;6.70;;;2.50;;
70102;SDS011;57470;50.034;15.256;2023-07-16T03:11:26;5.77;;;2.27;;
70102;SDS011;57470;50.034;15.256;2023-07-16T03:13:52;6.10;;;1.83;;
70102;SDS011;57470;50.034;15.256;2023-07-16T03:16:17;5.30;;;2.30;;
70102;SDS011;57470;50.034;15.256;2023-07-16T03:18:44;5.05;;;1.95;;
70102;SDS011;57470;50.034;15.256;2023-07-16T03:21:10;5.97;;;2.50;;
70102;SDS011;57470;50.034;15.256;2023-07-16T03:23:36;6.83;;;2.40;;
70102;SDS011;57470;50.034;15.256;2023-07-16T03:26:01;4.77;;;1.70;;
70102;SDS011;57470;50.034;15.256;2023-07-16T03:28:26;10.13;;;2.33;;
70102;SDS011;57470;50.034;15.256;2023-07-16T03:30:52;5.33;;;2.13;;
70102;SDS011;57470;50.034;15.256;2023-07-16T03:33:18;8.73;;;2.10;;
70102;SDS011;57470;50.034;15.256;2023-07-16T03:35:44;5.60;;;2.00;;
70102;SDS011;57470;50.034;15.256;2023-07-16T03:38:11;6.40;;;2.10;;
70102;SDS011;57470;50.034;15.256;2023-07-16T03:40:37;5.82;;;2.42;;
70102;SDS011;57470;50.034;15.256;2023-07-16T03:43:02;5.63;;;2.40;;
70102;SDS011;57470;50.034;15.256;2023-07-16T03:45:28;6.63;;;1.70;;
70102;SDS011;57470;50.034;15.256;2023-07-16T03:47:53;5.90;;;1.87;;
70102;SDS011;57470;50.034;15.256;2023-07-16T03:50:19;4.57;;;1.55;;
70102;SDS011;57470;50.034;15.256;2023-07-16T03:52:45;4.97;;;1.60;;
70102;SDS011;57470;50.034;15.256;2023-07-16T03:55:10;4.70;;;1.43;;
70102;SDS011;57470;50.034;15.256;2023-07-16T03:57:35;5.30;;;1.17;;
70102;SDS011;57470;50.034;15.256;2023-07-16T04:00:04;4.23;;;1.27;;
70102;SDS011;57470;50.034;15.256;2023-07-16T04:02:36;4.45;;;1.48;;
70102;SDS011;57470;50.034;15.256;2023-07-16T04:05:02;10.67;;;2.10;;
70102;SDS011;57470;50.034;15.256;2023-07-16T04:07:27;4.70;;;1.38;;
70102;SDS011;57470;50.034;15.256;2023-07-16T04:09:53;4.50;;;1.73;;
70102;SDS011;57470;50.034;15.256;2023-07-16T04:12:18;7.10;;;1.97;;
70102;SDS011;57470;50.034;15.256;2023-07-16T04:14:44;4.93;;;1.92;;
70102;SDS011;57470;50.034;15.256;2023-07-16T04:17:09;6.60;;;1.70;;
70102;SDS011;57470;50.034;15.256;2023-07-16T04:19:35;8.13;;;1.97;;
70102;SDS011;57470;50.034;15.256;2023-07-16T04:22:00;6.60;;;2.20;;
70102;SDS011;57470;50.034;15.256;2023-07-16T04:24:26;5.43;;;2.17;;
70102;SDS011;57470;50.034;15.256;2023-07-16T04:26:54;5.93;;;1.83;;
70102;SDS011;57470;50.034;15.256;2023-07-16T04:29:19;4.57;;;1.60;;
70102;SDS011;57470;50.034;15.256;2023-07-16T04:31:45;6.80;;;1.63;;
70102;SDS011;57470;50.034;15.256;2023-07-16T04:34:10;5.57;;;1.80;;
70102;SDS011;57470;50.034;15.256;2023-07-16T04:36:37;5.72;;;1.70;;
70102;SDS011;57470;50.034;15.256;2023-07-16T04:39:03;5.65;;;2.17;;
70102;SDS011;57470;50.034;15.256;2023-07-16T04:41:29;7.57;;;2.10;;
70102;SDS011;57470;50.034;15.256;2023-07-16T04:43:55;4.70;;;1.80;;
70102;SDS011;57470;50.034;15.256;2023-07-16T04:46:21;8.35;;;2.08;;
70102;SDS011;57470;50.034;15.256;2023-07-16T04:48:46;5.17;;;1.57;;
70102;SDS011;57470;50.034;15.256;2023-07-16T04:51:11;5.53;;;1.97;;
70102;SDS011;57470;50.034;15.256;2023-07-16T04:53:37;4.70;;;1.80;;
70102;SDS011;57470;50.034;15.256;2023-07-16T04:56:02;8.03;;;1.90;;
70102;SDS011;57470;50.034;15.256;2023-07-16T04:58:27;5.20;;;1.88;;
70102;SDS011;57470;50.034;15.256;2023-07-16T05:00:53;4.57;;;1.30;;
70102;SDS011;57470;50.034;15.256;2023-07-16T05:03:18;4.93;;;1.87;;
70102;SDS011;57470;50.034;15.256;2023-07-16T05:05:44;5.47;;;1.57;;
70102;SDS011;57470;50.034;15.256;2023-07-16T05:08:09;6.20;;;1.67;;
70102;SDS011;57470;50.034;15.256;2023-07-16T05:10:34;5.75;;;1.90;;
70102;SDS011;57470;50.034;15.256;2023-07-16T05:13:00;4.30;;;1.37;;
70102;SDS011;57470;50.034;15.256;2023-07-16T05:15:28;4.07;;;1.20;;
70102;SDS011;57470;50.034;15.256;2023-07-16T05:17:56;8.82;;;1.60;;
70102;SDS011;57470;50.034;15.256;2023-07-16T05:20:22;6.53;;;2.15;;
70102;SDS011;57470;50.034;15.256;2023-07-16T05:22:48;4.40;;;1.50;;
70102;SDS011;57470;50.034;15.256;2023-07-16T05:25:13;6.23;;;1.80;;
70102;SDS011;57470;50.034;15.256;2023-07-16T05:27:39;8.90;;;1.47;;
70102;SDS011;57470;50.034;15.256;2023-07-16T05:30:04;4.40;;;1.38;;
70102;SDS011;57470;50.034;15.256;2023-07-16T05:32:30;5.20;;;2.00;;
70102;SDS011;57470;50.034;15.256;2023-07-16T05:34:55;3.43;;;1.00;;
70102;SDS011;57470;50.034;15.256;2023-07-16T05:37:21;4.20;;;1.53;;
70102;SDS011;57470;50.034;15.256;2023-07-16T05:39:46;3.87;;;1.23;;
70102;SDS011;57470;50.034;15.256;2023-07-16T05:42:11;4.70;;;1.60;;
70102;SDS011;57470;50.034;15.256;2023-07-16T05:44:37;4.23;;;1.50;;
70102;SDS011;57470;50.034;15.256;2023-07-16T05:47:02;4.23;;;1.10;;
70102;SDS011;57470;50.034;15.256;2023-07-16T05:49:28;5.05;;;1.77;;
70102;SDS011;57470;50.034;15.256;2023-07-16T05:51:53;3.97;;;1.70;;
70102;SDS011;57470;50.034;15.256;2023-07-16T05:54:20;4.63;;;1.05;;
70102;SDS011;57470;50.034;15.256;2023-07-16T05:56:46;3.80;;;1.00;;
70102;SDS011;57470;50.034;15.256;2023-07-16T05:59:12;3.85;;;1.52;;
70102;SDS011;57470;50.034;15.256;2023-07-16T06:01:37;3.40;;;0.97;;
70102;SDS011;57470;50.034;15.256;2023-07-16T06:04:03;2.83;;;0.80;;
70102;SDS011;57470;50.034;15.256;2023-07-16T06:06:29;4.70;;;1.33;;
70102;SDS011;57470;50.034;15.256;2023-07-16T06:08:55;3.43;;;0.80;;
70102;SDS011;57470;50.034;15.256;2023-07-16T06:11:20;4.63;;;0.90;;
70102;SDS011;57470;50.034;15.256;2023-07-16T06:13:46;3.63;;;0.93;;
70102;SDS011;57470;50.034;15.256;2023-07-16T06:16:11;3.33;;;1.00;;
70102;SDS011;57470;50.034;15.256;2023-07-16T06:18:37;3.77;;;0.87;;
70102;SDS011;57470;50.034;15.256;2023-07-16T06:21:02;3.43;;;0.80;;
70102;SDS011;57470;50.034;15.256;2023-07-16T06:23:28;3.20;;;0.88;;
70102;SDS011;57470;50.034;15.256;2023-07-16T06:25:53;3.20;;;0.90;;
70102;SDS011;57470;50.034;15.256;2023-07-16T06:28:20;4.10;;;1.00;;
70102;SDS011;57470;50.034;15.256;2023-07-16T06:30:45;3.20;;;0.90;;
70102;SDS011;57470;50.034;15.256;2023-07-16T06:33:11;4.25;;;1.17;;
70102;SDS011;57470;50.034;15.256;2023-07-16T06:35:36;4.03;;;1.00;;
70102;SDS011;57470;50.034;15.256;2023-07-16T06:38:02;3.77;;;1.17;;
70102;SDS011;57470;50.034;15.256;2023-07-16T06:40:29;4.13;;;1.02;;
70102;SDS011;57470;50.034;15.256;2023-07-16T06:42:56;4.93;;;1.30;;
70102;SDS011;57470;50.034;15.256;2023-07-16T06:45:23;3.73;;;0.77;;
70102;SDS011;57470;50.034;15.256;2023-07-16T06:47:50;3.15;;;0.98;;
70102;SDS011;57470;50.034;15.256;2023-07-16T06:50:16;4.63;;;1.30;;
70102;SDS011;57470;50.034;15.256;2023-07-16T06:52:43;3.20;;;0.90;;
70102;SDS011;57470;50.034;15.256;2023-07-16T06:55:09;3.87;;;1.23;;
70102;SDS011;57470;50.034;15.256;2023-07-16T06:57:35;3.75;;;0.90;;
70102;SDS011;57470;50.034;15.256;2023-07-16T07:00:01;4.40;;;1.53;;
70102;SDS011;57470;50.034;15.256;2023-07-16T07:02:27;3.80;;;1.40;;
70102;SDS011;57470;50.034;15.256;2023-07-16T07:04:52;3.30;;;0.93;;
70102;SDS011;57470;50.034;15.256;2023-07-16T07:07:17;3.87;;;1.10;;
70102;SDS011;57470;50.034;15.256;2023-07-16T07:09:43;3.77;;;1.33;;
70102;SDS011;57470;50.034;15.256;2023-07-16T07:12:11;3.38;;;0.90;;
70102;SDS011;57470;50.034;15.256;2023-07-16T07:14:37;3.03;;;0.93;;
70102;SDS011;57470;50.034;15.256;2023-07-16T07:17:02;3.70;;;1.10;;
70102;SDS011;57470;50.034;15.256;2023-07-16T07:19:28;5.18;;;1.10;;
70102;SDS011;57470;50.034;15.256;2023-07-16T07:21:53;3.77;;;0.97;;
70102;SDS011;57470;50.034;15.256;2023-07-16T07:24:19;3.63;;;0.97;;
70102;SDS011;57470;50.034;15.256;2023-07-16T07:26:44;3.33;;;0.83;;
70102;SDS011;57470;50.034;15.256;2023-07-16T07:29:09;4.78;;;1.20;;
70102;SDS011;57470;50.034;15.256;2023-07-16T07:31:35;3.77;;;0.97;;
70102;SDS011;57470;50.034;15.256;2023-07-16T07:34:00;3.33;;;0.93;;
70102;SDS011;57470;50.034;15.256;2023-07-16T07:36:25;4.13;;;1.30;;
70102;SDS011;57470;50.034;15.256;2023-07-16T07:38:51;4.40;;;1.40;;
70102;SDS011;57470;50.034;15.256;2023-07-16T07:41:16;4.50;;;1.27;;
70102;SDS011;57470;50.034;15.256;2023-07-16T07:43:42;3.83;;;1.27;;
70102;SDS011;57470;50.034;15.256;2023-07-16T07:46:08;3.13;;;0.70;;
70102;SDS011;57470;50.034;15.256;2023-07-16T07:48:33;7.70;;;0.95;;
70102;SDS011;57470;50.034;15.256;2023-07-16T07:50:58;4.30;;;0.93;;
70102;SDS011;57470;50.034;15.256;2023-07-16T07:53:24;3.97;;;1.10;;
70102;SDS011;57470;50.034;15.256;2023-07-16T07:55:49;3.07;;;0.83;;
70102;SDS011;57470;50.034;15.256;2023-07-16T07:58:14;4.20;;;1.00;;
70102;SDS011;57470;50.034;15.256;2023-07-16T08:00:40;10.93;;;3.37;;
70102;SDS011;57470;50.034;15.256;2023-07-16T08:03:05;6.85;;;2.63;;
70102;SDS011;57470;50.034;15.256;2023-07-16T08:05:31;5.37;;;1.10;;
70102;SDS011;57470;50.034;15.256;2023-07-16T08:07:56;3.57;;;1.20;;
70102;SDS011;57470;50.034;15.256;2023-07-16T08:10:22;3.10;;;0.83;;
70102;SDS011;57470;50.034;15.256;2023-07-16T08:12:47;3.53;;;1.08;;
70102;SDS011;57470;50.034;15.256;2023-07-16T08:15:13;3.67;;;0.80;;
70102;SDS011;57470;50.034;15.256;2023-07-16T08:17:42;3.45;;;1.08;;
70102;SDS011;57470;50.034;15.256;2023-07-16T08:20:08;4.47;;;1.20;;
70102;SDS011;57470;50.034;15.256;2023-07-16T08:22:34;4.13;;;1.40;;
70102;SDS011;57470;50.034;15.256;2023-07-16T08:25:00;3.93;;;1.33;;
70102;SDS011;57470;50.034;15.256;2023-07-16T08:27:25;3.90;;;0.80;;
70102;SDS011;57470;50.034;15.256;2023-07-16T08:29:51;3.80;;;1.13;;
70102;SDS011;57470;50.034;15.256;2023-07-16T08:32:16;4.97;;;1.20;;
70102;SDS011;57470;50.034;15.256;2023-07-16T08:34:42;3.53;;;1.03;;
70102;SDS011;57470;50.034;15.256;2023-07-16T08:37:07;5.70;;;0.90;;
70102;SDS011;57470;50.034;15.256;2023-07-16T08:39:33;4.60;;;1.43;;
70102;SDS011;57470;50.034;15.256;2023-07-16T08:41:58;3.80;;;1.08;;
70102;SDS011;57470;50.034;15.256;2023-07-16T08:44:24;3.37;;;0.70;;
70102;SDS011;57470;50.034;15.256;2023-07-16T08:46:50;3.97;;;0.95;;
70102;SDS011;57470;50.034;15.256;2023-07-16T08:49:17;4.20;;;1.53;;
70102;SDS011;57470;50.034;15.256;2023-07-16T08:51:45;4.20;;;1.20;;
70102;SDS011;57470;50.034;15.256;2023-07-16T08:54:13;4.53;;;1.30;;
70102;SDS011;57470;50.034;15.256;2023-07-16T08:56:42;5.43;;;1.20;;
70102;SDS011;57470;50.034;15.256;2023-07-16T08:59:08;4.47;;;1.40;;
70102;SDS011;57470;50.034;15.256;2023-07-16T09:01:35;4.40;;;1.27;;
70102;SDS011;57470;50.034;15.256;2023-07-16T09:04:02;4.97;;;1.67;;
70102;SDS011;57470;50.034;15.256;2023-07-16T09:06:28;4.25;;;1.33;;
70102;SDS011;57470;50.034;15.256;2023-07-16T09:08:53;3.83;;;1.17;;
70102;SDS011;57470;50.034;15.256;2023-07-16T09:11:20;3.25;;;0.85;;
70102;SDS011;57470;50.034;15.256;2023-07-16T09:13:47;4.10;;;1.70;;
70102;SDS011;57470;50.034;15.256;2023-07-16T09:16:13;4.63;;;1.80;;
70102;SDS011;57470;50.034;15.256;2023-07-16T09:18:40;5.50;;;1.30;;
70102;SDS011;57470;50.034;15.256;2023-07-16T09:21:06;5.38;;;1.98;;
70102;SDS011;57470;50.034;15.256;2023-07-16T09:23:32;5.07;;;1.80;;
70102;SDS011;57470;50.034;15.256;2023-07-16T09:25:58;5.53;;;2.08;;
70102;SDS011;57470;50.034;15.256;2023-07-16T09:28:23;4.00;;;1.10;;
70102;SDS011;57470;50.034;15.256;2023-07-16T09:30:49;4.82;;;2.00;;
70102;SDS011;57470;50.034;15.256;2023-07-16T09:33:17;5.68;;;1.55;;
70102;SDS011;57470;50.034;15.256;2023-07-16T09:35:43;4.40;;;1.33;;
70102;SDS011;57470;50.034;15.256;2023-07-16T09:38:09;3.72;;;1.05;;
70102;SDS011;57470;50.034;15.256;2023-07-16T09:40:36;6.10;;;1.70;;
70102;SDS011;57470;50.034;15.256;2023-07-16T09:43:02;4.30;;;1.52;;
70102;SDS011;57470;50.034;15.256;2023-07-16T09:45:29;3.77;;;1.20;;
70102;SDS011;57470;50.034;15.256;2023-07-16T09:47:55;4.25;;;1.38;;
70102;SDS011;57470;50.034;15.256;2023-07-16T09:50:22;4.00;;;1.63;;
70102;SDS011;57470;50.034;15.256;2023-07-16T09:52:48;7.05;;;2.85;;
70102;SDS011;57470;50.034;15.256;2023-07-16T09:55:15;7.70;;;2.80;;
70102;SDS011;57470;50.034;15.256;2023-07-16T09:57:41;6.75;;;3.15;;
70102;SDS011;57470;50.034;15.256;2023-07-16T10:00:11;6.30;;;3.25;;
70102;SDS011;57470;50.034;15.256;2023-07-16T10:02:39;5.60;;;2.70;;
70102;SDS011;57470;50.034;15.256;2023-07-16T10:05:38;5.32;;;1.85;;
70102;SDS011;57470;50.034;15.256;2023-07-16T10:08:00;4.88;;;1.60;;
70102;SDS011;57470;50.034;15.256;2023-07-16T10:10:47;7.00;;;3.10;;
70102;SDS011;57470;50.034;15.256;2023-07-16T10:13:16;4.85;;;1.75;;
70102;SDS011;57470;50.034;15.256;2023-07-16T10:15:55;4.23;;;1.57;;
70102;SDS011;57470;50.034;15.256;2023-07-16T10:18:23;4.67;;;1.70;;
70102;SDS011;57470;50.034;15.256;2023-07-16T10:20:53;4.80;;;1.73;;
70102;SDS011;57470;50.034;15.256;2023-07-16T10:23:18;4.28;;;0.95;;
70102;SDS011;57470;50.034;15.256;2023-07-16T10:25:59;4.50;;;1.33;;
70102;SDS011;57470;50.034;15.256;2023-07-16T10:28:26;5.28;;;1.65;;
70102;SDS011;57470;50.034;15.256;2023-07-16T10:30:51;5.33;;;1.47;;
70102;SDS011;57470;50.034;15.256;2023-07-16T10:33:17;4.90;;;1.67;;
70102;SDS011;57470;50.034;15.256;2023-07-16T10:35:44;3.83;;;1.33;;
70102;SDS011;57470;50.034;15.256;2023-07-16T10:38:10;4.07;;;1.38;;
70102;SDS011;57470;50.034;15.256;2023-07-16T10:40:45;4.57;;;1.70;;
70102;SDS011;57470;50.034;15.256;2023-07-16T10:43:14;3.97;;;1.40;;
70102;SDS011;57470;50.034;15.256;2023-07-16T10:45:39;4.47;;;1.60;;
70102;SDS011;57470;50.034;15.256;2023-07-16T10:48:05;4.70;;;1.40;;
70102;SDS011;57470;50.034;15.256;2023-07-16T10:50:34;4.57;;;1.77;;
70102;SDS011;57470;50.034;15.256;2023-07-16T10:53:00;3.78;;;0.82;;
70102;SDS011;57470;50.034;15.256;2023-07-16T10:55:26;4.20;;;1.37;;
70102;SDS011;57470;50.034;15.256;2023-07-16T10:57:53;4.50;;;1.63;;
70102;SDS011;57470;50.034;15.256;2023-07-16T11:00:19;5.05;;;1.52;;
70102;SDS011;57470;50.034;15.256;2023-07-16T11:02:46;3.67;;;1.13;;
70102;SDS011;57470;50.034;15.256;2023-07-16T11:05:12;5.35;;;1.55;;
70102;SDS011;57470;50.034;15.256;2023-07-16T11:07:43;4.13;;;1.60;;
70102;SDS011;57470;50.034;15.256;2023-07-16T11:10:09;4.53;;;1.33;;
70102;SDS011;57470;50.034;15.256;2023-07-16T11:12:35;4.13;;;1.40;;
70102;SDS011;57470;50.034;15.256;2023-07-16T11:15:00;3.97;;;1.20;;
70102;SDS011;57470;50.034;15.256;2023-07-16T11:17:26;4.43;;;1.50;;
70102;SDS011;57470;50.034;15.256;2023-07-16T11:19:52;4.95;;;1.90;;
70102;SDS011;57470;50.034;15.256;2023-07-16T11:22:23;8.07;;;1.23;;
70102;SDS011;57470;50.034;15.256;2023-07-16T11:24:51;6.33;;;1.90;;
70102;SDS011;57470;50.034;15.256;2023-07-16T11:27:19;4.78;;;1.75;;
70102;SDS011;57470;50.034;15.256;2023-07-16T11:29:46;5.05;;;1.80;;
70102;SDS011;57470;50.034;15.256;2023-07-16T11:32:13;3.72;;;1.30;;
70102;SDS011;57470;50.034;15.256;2023-07-16T11:34:51;4.30;;;1.70;;
70102;SDS011;57470;50.034;15.256;2023-07-16T11:37:17;4.20;;;1.65;;
70102;SDS011;57470;50.034;15.256;2023-07-16T11:39:43;3.80;;;1.13;;
70102;SDS011;57470;50.034;15.256;2023-07-16T11:42:08;3.95;;;1.30;;
70102;SDS011;57470;50.034;15.256;2023-07-16T11:44:34;3.80;;;1.40;;
70102;SDS011;57470;50.034;15.256;2023-07-16T11:47:00;4.97;;;1.52;;
70102;SDS011;57470;50.034;15.256;2023-07-16T11:49:25;4.40;;;1.30;;
70102;SDS011;57470;50.034;15.256;2023-07-16T11:51:51;3.90;;;1.20;;
70102;SDS011;57470;50.034;15.256;2023-07-16T11:54:16;4.23;;;1.40;;
70102;SDS011;57470;50.034;15.256;2023-07-16T11:56:41;4.60;;;1.33;;
70102;SDS011;57470;50.034;15.256;2023-07-16T11:59:07;3.87;;;1.10;;
70102;SDS011;57470;50.034;15.256;2023-07-16T12:01:32;4.47;;;1.23;;
70102;SDS011;57470;50.034;15.256;2023-07-16T12:03:58;4.00;;;1.43;;
70102;SDS011;57470;50.034;15.256;2023-07-16T12:06:23;3.90;;;1.33;;
70102;SDS011;57470;50.034;15.256;2023-07-16T12:08:48;4.07;;;1.37;;
70102;SDS011;57470;50.034;15.256;2023-07-16T12:11:14;3.47;;;1.20;;
70102;SDS011;57470;50.034;15.256;2023-07-16T12:13:39;5.07;;;1.40;;
70102;SDS011;57470;50.034;15.256;2023-07-16T12:16:05;6.00;;;1.60;;
70102;SDS011;57470;50.034;15.256;2023-07-16T12:18:30;4.90;;;1.50;;
70102;SDS011;57470;50.034;15.256;2023-07-16T12:20:56;4.10;;;1.37;;
70102;SDS011;57470;50.034;15.256;2023-07-16T12:23:21;3.70;;;1.20;;
70102;SDS011;57470;50.034;15.256;2023-07-16T12:25:47;4.53;;;1.50;;
70102;SDS011;57470;50.034;15.256;2023-07-16T12:28:14;4.20;;;1.50;;
70102;SDS011;57470;50.034;15.256;2023-07-16T12:30:39;3.90;;;1.40;;
70102;SDS011;57470;50.034;15.256;2023-07-16T12:33:05;3.80;;;1.20;;
70102;SDS011;57470;50.034;15.256;2023-07-16T12:35:31;3.78;;;1.10;;
70102;SDS011;57470;50.034;15.256;2023-07-16T12:37:56;4.03;;;1.20;;
70102;SDS011;57470;50.034;15.256;2023-07-16T12:40:23;3.92;;;1.10;;
70102;SDS011;57470;50.034;15.256;2023-07-16T12:42:49;3.60;;;1.10;;
70102;SDS011;57470;50.034;15.256;2023-07-16T12:45:14;3.20;;;0.80;;
70102;SDS011;57470;50.034;15.256;2023-07-16T12:47:40;3.93;;;1.43;;
70102;SDS011;57470;50.034;15.256;2023-07-16T12:50:05;3.67;;;0.90;;
70102;SDS011;57470;50.034;15.256;2023-07-16T12:52:31;3.63;;;0.90;;
70102;SDS011;57470;50.034;15.256;2023-07-16T12:54:56;4.47;;;1.20;;
70102;SDS011;57470;50.034;15.256;2023-07-16T12:57:22;3.20;;;1.00;;
70102;SDS011;57470;50.034;15.256;2023-07-16T12:59:47;3.63;;;1.10;;
70102;SDS011;57470;50.034;15.256;2023-07-16T13:02:13;3.93;;;1.10;;
70102;SDS011;57470;50.034;15.256;2023-07-16T13:04:38;4.37;;;1.00;;
70102;SDS011;57470;50.034;15.256;2023-07-16T13:07:03;3.20;;;1.00;;
70102;SDS011;57470;50.034;15.256;2023-07-16T13:09:29;3.53;;;0.95;;
70102;SDS011;57470;50.034;15.256;2023-07-16T13:11:54;3.43;;;1.10;;
70102;SDS011;57470;50.034;15.256;2023-07-16T13:14:20;4.23;;;1.10;;
70102;SDS011;57470;50.034;15.256;2023-07-16T13:16:45;3.83;;;1.00;;
70102;SDS011;57470;50.034;15.256;2023-07-16T13:19:10;3.60;;;1.30;;
70102;SDS011;57470;50.034;15.256;2023-07-16T13:21:36;3.77;;;1.20;;
70102;SDS011;57470;50.034;15.256;2023-07-16T13:24:01;3.85;;;1.40;;
70102;SDS011;57470;50.034;15.256;2023-07-16T13:26:27;3.77;;;1.03;;
70102;SDS011;57470;50.034;15.256;2023-07-16T13:28:52;3.30;;;1.00;;
70102;SDS011;57470;50.034;15.256;2023-07-16T13:31:17;3.43;;;1.10;;
70102;SDS011;57470;50.034;15.256;2023-07-16T13:33:43;3.95;;;1.05;;
70102;SDS011;57470;50.034;15.256;2023-07-16T13:36:08;3.87;;;1.17;;
70102;SDS011;57470;50.034;15.256;2023-07-16T13:38:34;3.73;;;1.07;;
70102;SDS011;57470;50.034;15.256;2023-07-16T13:40:59;3.40;;;1.10;;
70102;SDS011;57470;50.034;15.256;2023-07-16T13:43:24;4.30;;;1.37;;
70102;SDS011;57470;50.034;15.256;2023-07-16T13:45:50;3.83;;;1.00;;
70102;SDS011;57470;50.034;15.256;2023-07-16T13:48:15;6.13;;;1.40;;
70102;SDS011;57470;50.034;15.256;2023-07-16T13:50:41;3.73;;;0.93;;
70102;SDS011;57470;50.034;15.256;2023-07-16T13:53:06;5.13;;;1.27;;
70102;SDS011;57470;50.034;15.256;2023-07-16T13:55:31;4.63;;;1.27;;
70102;SDS011;57470;50.034;15.256;2023-07-16T13:57:57;3.58;;;1.00;;
70102;SDS011;57470;50.034;15.256;2023-07-16T14:00:22;4.43;;;1.17;;
70102;SDS011;57470;50.034;15.256;2023-07-16T14:02:48;3.67;;;1.40;;
70102;SDS011;57470;50.034;15.256;2023-07-16T14:05:13;4.10;;;1.20;;
70102;SDS011;57470;50.034;15.256;2023-07-16T14:07:39;4.73;;;1.67;;
70102;SDS011;57470;50.034;15.256;2023-07-16T14:10:04;3.10;;;0.87;;
70102;SDS011;57470;50.034;15.256;2023-07-16T14:12:30;3.38;;;0.90;;
70102;SDS011;57470;50.034;15.256;2023-07-16T14:14:56;3.63;;;1.17;;
70102;SDS011;57470;50.034;15.256;2023-07-16T14:17:21;4.97;;;0.97;;
70102;SDS011;57470;50.034;15.256;2023-07-16T14:19:47;6.25;;;1.67;;
70102;SDS011;57470;50.034;15.256;2023-07-16T14:22:12;4.00;;;1.23;;
70102;SDS011;57470;50.034;15.256;2023-07-16T14:24:39;4.28;;;1.33;;
70102;SDS011;57470;50.034;15.256;2023-07-16T14:27:06;5.80;;;0.97;;
70102;SDS011;57470;50.034;15.256;2023-07-16T14:29:31;3.83;;;1.20;;
70102;SDS011;57470;50.034;15.256;2023-07-16T14:31:57;3.85;;;1.48;;
70102;SDS011;57470;50.034;15.256;2023-07-16T14:34:25;4.03;;;1.37;;
70102;SDS011;57470;50.034;15.256;2023-07-16T14:36:51;4.05;;;1.30;;